createdAt,value
2022-08-20T00:18:37.047Z,18.48
2022-08-20T00:21:27.264Z,18.48
2022-08-20T00:27:24.829Z,18.42
2022-08-20T00:31:10.126Z,18.31
2022-08-20T00:34:19.842Z,18.48
2022-08-20T00:44:13.359Z,18.72
2022-08-20T00:47:05.278Z,18.77
2022-08-20T00:53:55.630Z,18.73
2022-08-20T00:57:51.240Z,18.58
2022-08-20T01:00:37.657Z,18.41
2022-08-20T01:06:52.739Z,18.14
2022-08-20T01:14:01.087Z,18.03
2022-08-20T01:16:52.430Z,18.11
2022-08-20T01:20:01.533Z,18.13
2022-08-20T01:23:04.022Z,18.10
2022-08-20T01:25:44.252Z,18.13
2022-08-20T01:28:54.965Z,18.17
2022-08-20T01:31:31.424Z,18.21
2022-08-20T01:34:23.729Z,18.17
2022-08-20T01:36:58.919Z,18.18
2022-08-20T01:43:57.138Z,18.13
2022-08-20T01:50:25.355Z,18.27
2022-08-20T01:56:14.296Z,18.30
2022-08-20T01:59:24.487Z,18.24
2022-08-20T02:01:57.301Z,18.11
2022-08-20T02:04:30.212Z,18.04
2022-08-20T02:07:23.725Z,18.10
2022-08-20T02:10:13.845Z,18.10
2022-08-20T02:13:13.102Z,18.04
2022-08-20T02:19:31.605Z,17.79
2022-08-20T02:22:10.496Z,17.73
2022-08-20T02:24:43.631Z,17.71
2022-08-20T02:27:19.035Z,17.61
2022-08-20T02:30:45.875Z,17.60
2022-08-20T02:33:24.127Z,17.66
2022-08-20T02:35:57.830Z,17.65
2022-08-20T02:42:14.538Z,17.70
2022-08-20T02:49:05.363Z,17.68
2022-08-20T02:51:37.795Z,17.71
2022-08-20T02:54:45.373Z,17.63
2022-08-20T03:04:14.059Z,17.51
2022-08-20T03:09:55.778Z,17.52
2022-08-20T03:15:58.079Z,17.54
2022-08-20T03:19:05.559Z,17.54
2022-08-20T03:21:55.185Z,17.50
2022-08-20T03:25:04.519Z,17.41
2022-08-20T03:27:37.175Z,17.35
2022-08-20T03:30:12.939Z,17.38
2022-08-20T03:33:04.944Z,17.43
2022-08-20T03:39:40.081Z,17.43
2022-08-20T03:45:58.245Z,17.57
2022-08-20T03:49:06.432Z,17.48
2022-08-20T03:55:41.967Z,17.13
2022-08-20T03:58:19.510Z,17.11
2022-08-20T04:01:44.742Z,16.98
2022-08-20T04:04:35.967Z,16.95
2022-08-20T04:07:31.169Z,16.98
2022-08-20T04:10:22.448Z,17.06
2022-08-20T04:12:54.671Z,17.08
2022-08-20T04:15:27.394Z,17.17
2022-08-20T04:18:34.441Z,17.21
2022-08-20T04:21:24.678Z,17.25
2022-08-20T04:31:14.354Z,17.26
2022-08-20T04:34:21.926Z,17.25
2022-08-20T04:37:17.338Z,17.33
2022-08-20T04:40:24.934Z,17.39
2022-08-20T04:46:59.808Z,17.34
2022-08-20T04:52:39.756Z,17.24
2022-08-20T04:58:38.661Z,17.33
2022-08-20T05:01:13.005Z,17.34
2022-08-20T05:03:46.050Z,17.38
2022-08-20T05:06:53.075Z,17.41
2022-08-20T05:09:44.340Z,17.54
2022-08-20T05:12:19.914Z,17.53
2022-08-20T05:15:26.873Z,17.61
2022-08-20T05:18:52.387Z,17.71
2022-08-20T05:22:00.535Z,17.80
2022-08-20T05:25:25.190Z,17.86
2022-08-20T05:28:51.355Z,17.97
2022-08-20T05:31:33.318Z,18.32
2022-08-20T05:34:26.534Z,19.01
2022-08-20T05:37:17.772Z,19.09
2022-08-20T05:43:35.218Z,19.50
2022-08-20T05:46:44.133Z,20.73
2022-08-20T05:49:20.071Z,21.45
2022-08-20T05:52:09.835Z,22.14
2022-08-20T05:54:59.558Z,22.50
2022-08-20T05:58:25.437Z,22.83
2022-08-20T06:05:16.888Z,22.79
2022-08-20T06:08:07.529Z,22.62
2022-08-20T06:11:37.301Z,22.66
2022-08-20T06:14:09.850Z,22.20
2022-08-20T06:16:57.223Z,22.15
2022-08-20T06:19:50.521Z,22.57
2022-08-20T06:22:25.691Z,22.61
2022-08-20T06:25:15.905Z,22.76
2022-08-20T06:28:24.752Z,22.49
2022-08-20T06:31:31.863Z,22.13
2022-08-20T06:34:49.890Z,21.98
2022-08-20T06:37:41.646Z,21.74
2022-08-20T06:40:18.396Z,21.65
2022-08-20T06:43:10.037Z,21.67
2022-08-20T06:46:19.118Z,22.02
2022-08-20T06:49:27.261Z,22.62
2022-08-20T06:55:30.697Z,24.26
2022-08-20T06:58:32.775Z,24.71
2022-08-20T07:04:37.193Z,26.04
2022-08-20T07:07:47.173Z,26.26
2022-08-20T07:14:37.937Z,26.42
2022-08-20T07:17:12.469Z,26.44
2022-08-20T07:20:25.088Z,26.86
2022-08-20T07:23:33.872Z,27.20
2022-08-20T07:26:24.663Z,27.54
2022-08-20T07:29:16.005Z,27.78
2022-08-20T07:32:30.252Z,27.81
2022-08-20T07:42:30.778Z,28.53
2022-08-20T07:51:54.575Z,28.50
2022-08-20T07:54:28.094Z,28.54
2022-08-20T07:57:05.178Z,28.68
2022-08-20T07:59:38.913Z,29.03
2022-08-20T08:02:28.566Z,28.98
2022-08-20T08:05:55.593Z,28.63
2022-08-20T08:09:03.524Z,28.60
2022-08-20T08:11:56.683Z,28.86
2022-08-20T08:18:33.956Z,29.13
2022-08-20T08:21:06.812Z,29.50
2022-08-20T08:23:40.499Z,29.89
2022-08-20T08:33:58.160Z,30.45
2022-08-20T08:44:22.978Z,31.14
2022-08-20T08:47:21.773Z,30.06
2022-08-20T08:54:24.637Z,29.55
2022-08-20T09:01:01.579Z,30.62
2022-08-20T09:03:55.500Z,31.03
2022-08-20T09:11:05.617Z,31.16
2022-08-20T09:13:56.234Z,31.31
2022-08-20T09:16:52.242Z,31.33
2022-08-20T09:20:18.135Z,31.98
2022-08-20T09:23:25.266Z,32.58
2022-08-20T09:26:15.045Z,32.85
2022-08-20T09:29:22.449Z,33.00
2022-08-20T09:32:11.970Z,33.06
2022-08-20T09:35:08.959Z,32.89
2022-08-20T09:38:00.011Z,32.83
2022-08-20T09:41:07.290Z,32.54
2022-08-20T09:43:57.275Z,32.15
2022-08-20T09:47:22.322Z,32.30
2022-08-20T09:50:49.307Z,32.61
2022-08-20T09:53:23.181Z,33.11
2022-08-20T09:56:31.224Z,33.49
2022-08-20T09:59:03.222Z,33.94
2022-08-20T10:01:35.499Z,34.47
2022-08-20T10:04:42.920Z,34.51
2022-08-20T10:10:38.829Z,34.90
2022-08-20T10:13:29.504Z,34.27
2022-08-20T10:19:31.273Z,34.76
2022-08-20T10:22:04.233Z,34.98
2022-08-20T10:24:54.154Z,35.14
2022-08-20T10:28:02.359Z,35.15
2022-08-20T10:31:10.897Z,34.93
2022-08-20T10:34:36.987Z,34.72
2022-08-20T10:38:03.175Z,34.61
2022-08-20T10:41:09.689Z,34.71
2022-08-20T10:44:18.890Z,35.17
2022-08-20T10:47:08.295Z,35.29
2022-08-20T10:50:16.103Z,35.26
2022-08-20T10:53:05.824Z,35.55
2022-08-20T11:02:11.449Z,36.26
2022-08-20T11:08:47.596Z,36.12
2022-08-20T11:11:57.678Z,35.93
2022-08-20T11:14:31.879Z,35.81
2022-08-20T11:17:05.809Z,35.86
2022-08-20T11:20:14.538Z,35.80
2022-08-20T11:23:06.580Z,35.78
2022-08-20T11:32:54.164Z,36.09
2022-08-20T11:35:48.852Z,36.31
2022-08-20T11:38:55.148Z,36.46
2022-08-20T11:41:28.721Z,35.99
2022-08-20T11:44:37.925Z,35.46
2022-08-20T11:47:47.044Z,34.87
2022-08-20T11:50:38.283Z,34.46
2022-08-20T11:53:26.998Z,34.46
2022-08-20T11:59:48.526Z,34.10
2022-08-20T12:02:39.111Z,34.27
2022-08-20T12:05:49.410Z,34.41
2022-08-20T12:08:27.554Z,34.85
2022-08-20T12:17:56.144Z,34.97
2022-08-20T12:21:06.712Z,34.83
2022-08-20T12:24:15.744Z,35.00
2022-08-20T12:27:17.699Z,34.95
2022-08-20T12:30:42.936Z,35.07
2022-08-20T12:33:32.921Z,35.10
2022-08-20T12:36:23.215Z,35.15
2022-08-20T12:39:13.629Z,35.41
2022-08-20T12:44:54.078Z,35.04
2022-08-20T12:47:47.283Z,34.47
2022-08-20T12:53:48.951Z,33.70
2022-08-20T13:00:11.044Z,33.70
2022-08-20T13:02:43.837Z,33.85
2022-08-20T13:05:34.028Z,34.03
2022-08-20T13:08:25.285Z,34.20
2022-08-20T13:14:42.967Z,33.73
2022-08-20T13:20:45.203Z,33.90
2022-08-20T13:30:10.653Z,34.41
2022-08-20T13:33:18.235Z,34.65
2022-08-20T13:36:25.054Z,34.44
2022-08-20T13:39:21.566Z,34.33
2022-08-20T13:42:32.805Z,34.17
2022-08-20T13:45:23.945Z,34.12
2022-08-20T13:48:15.479Z,33.98
2022-08-20T13:50:49.226Z,33.70
2022-08-20T13:56:46.335Z,33.01
2022-08-20T13:59:37.659Z,32.80
2022-08-20T14:02:29.149Z,32.48
2022-08-20T14:05:38.058Z,32.25
2022-08-20T14:11:22.398Z,31.72
2022-08-20T14:14:33.001Z,31.44
2022-08-20T14:17:41.651Z,31.20
2022-08-20T14:20:50.782Z,31.09
2022-08-20T14:26:31.209Z,30.72
2022-08-20T14:32:11.496Z,30.54
2022-08-20T14:34:43.901Z,30.42
2022-08-20T14:37:19.195Z,30.25
2022-08-20T14:40:11.213Z,30.25
2022-08-20T14:43:01.390Z,30.26
2022-08-20T14:48:40.400Z,30.16
2022-08-20T14:54:40.143Z,29.99
2022-08-20T14:57:33.807Z,29.96
2022-08-20T15:03:14.619Z,29.88
2022-08-20T15:06:06.315Z,29.86
2022-08-20T15:09:50.931Z,29.83
2022-08-20T15:12:43.082Z,29.78
2022-08-20T15:15:51.140Z,29.70
2022-08-20T15:18:25.298Z,29.67
2022-08-20T15:21:19.045Z,29.64
2022-08-20T15:24:15.793Z,29.64
2022-08-20T15:27:29.124Z,29.57
2022-08-20T15:30:20.317Z,29.50
2022-08-20T15:33:45.294Z,29.35
2022-08-20T15:36:17.420Z,29.35
2022-08-20T15:38:49.914Z,29.25
2022-08-20T15:45:24.469Z,29.13
2022-08-20T15:48:01.680Z,29.12
2022-08-20T15:51:22.688Z,29.07
2022-08-20T15:54:18.628Z,29.02
2022-08-20T15:57:03.163Z,29.01
2022-08-20T16:00:27.849Z,28.95
2022-08-20T16:07:37.988Z,28.88
2022-08-20T16:14:18.737Z,28.80
2022-08-20T16:17:30.720Z,28.76
2022-08-20T16:20:26.268Z,28.75
2022-08-20T16:23:43.970Z,28.70
2022-08-20T16:30:09.296Z,28.70
2022-08-20T16:36:37.376Z,28.65
2022-08-20T16:39:35.100Z,28.60
2022-08-20T16:42:29.958Z,28.54
2022-08-20T16:45:04.094Z,28.41
2022-08-20T16:47:58.025Z,28.35
2022-08-20T16:50:51.386Z,28.26
2022-08-20T16:53:25.115Z,28.06
2022-08-20T17:14:31.359Z,28.07
2022-08-20T17:21:08.679Z,27.95
2022-08-20T17:23:59.830Z,27.85
2022-08-20T17:26:37.065Z,27.74
2022-08-20T17:29:17.509Z,27.63
2022-08-20T17:36:21.080Z,27.48
2022-08-20T17:38:55.969Z,27.36
2022-08-20T17:41:46.803Z,27.30
2022-08-20T17:45:14.105Z,27.21
2022-08-20T17:47:47.016Z,27.15
2022-08-20T17:51:14.191Z,27.06
2022-08-20T18:03:50.115Z,26.84
2022-08-20T18:07:04.431Z,26.79
2022-08-20T18:09:58.309Z,26.64
2022-08-20T18:12:37.771Z,26.59
2022-08-20T18:15:32.342Z,26.52
2022-08-20T18:18:55.040Z,26.46
2022-08-20T18:22:24.734Z,26.33
2022-08-20T18:25:18.757Z,26.25
2022-08-20T18:31:49.790Z,26.03
2022-08-20T18:35:27.122Z,25.94
2022-08-20T18:38:27.981Z,25.86
2022-08-20T18:41:29.523Z,25.81
2022-08-20T18:44:14.117Z,25.77
2022-08-20T18:47:16.325Z,25.68
2022-08-20T18:50:21.891Z,25.44
2022-08-20T18:53:16.836Z,25.16
2022-08-20T18:56:07.018Z,24.98
2022-08-20T18:58:55.593Z,24.88
2022-08-20T19:02:07.480Z,24.67
2022-08-20T19:08:47.526Z,24.41
2022-08-20T19:11:50.760Z,24.46
2022-08-20T19:18:12.363Z,24.57
2022-08-20T19:21:15.835Z,24.59
2022-08-20T19:24:08.809Z,24.60
2022-08-20T19:27:04.647Z,24.59
2022-08-20T19:33:47.206Z,24.56
2022-08-20T19:37:35.058Z,24.23
2022-08-20T19:51:12.082Z,23.98
2022-08-20T19:54:41.859Z,23.90
2022-08-20T19:57:31.185Z,23.85
2022-08-20T20:00:24.151Z,23.77
2022-08-20T20:03:32.081Z,23.75
2022-08-20T20:10:07.566Z,23.75
2022-08-20T20:12:41.633Z,23.81
2022-08-20T20:15:31.294Z,23.83
2022-08-20T20:18:39.225Z,23.83
2022-08-20T20:21:36.965Z,23.82
2022-08-20T20:24:21.274Z,23.82
2022-08-20T20:26:53.785Z,23.79
2022-08-20T20:29:45.718Z,23.77
2022-08-20T20:32:39.373Z,23.71
2022-08-20T20:35:12.389Z,23.67
2022-08-20T20:37:50.920Z,23.65
2022-08-20T20:41:23.754Z,23.59
2022-08-20T20:44:05.493Z,23.55
2022-08-20T20:46:55.786Z,23.55
2022-08-20T20:50:04.831Z,23.51
2022-08-20T20:53:13.020Z,23.39
2022-08-20T20:56:01.975Z,23.36
2022-08-20T21:01:48.720Z,23.15
2022-08-20T21:08:12.466Z,23.06
2022-08-20T21:17:47.203Z,23.04
2022-08-20T21:23:47.389Z,23.06
2022-08-20T21:26:37.264Z,23.04
2022-08-20T21:29:31.813Z,23.03
2022-08-20T21:42:21.054Z,23.03
2022-08-20T21:45:19.726Z,22.99
2022-08-20T21:47:52.421Z,22.95
2022-08-20T21:50:24.809Z,22.91
2022-08-20T21:56:23.316Z,22.85
2022-08-20T21:59:48.856Z,22.88
2022-08-20T22:02:39.559Z,22.90
2022-08-20T22:05:12.243Z,22.94
2022-08-20T22:07:46.277Z,22.95
2022-08-20T22:10:53.903Z,22.95
2022-08-20T22:17:27.869Z,22.93
2022-08-20T22:20:34.822Z,22.89
2022-08-20T22:23:24.560Z,22.88
2022-08-20T22:26:14.694Z,22.87
2022-08-20T22:29:41.914Z,22.85
2022-08-20T22:35:58.165Z,22.85
2022-08-20T22:43:08.733Z,22.84
2022-08-20T22:46:33.587Z,22.82
2022-08-20T22:49:09.365Z,22.80
2022-08-20T22:51:45.408Z,22.79
2022-08-20T22:54:23.561Z,22.80
2022-08-20T22:57:30.907Z,22.80
2022-08-20T23:00:25.386Z,22.76
2022-08-20T23:03:50.130Z,22.71
2022-08-20T23:06:40.365Z,22.64
2022-08-20T23:09:50.377Z,22.46
2022-08-20T23:12:22.441Z,22.32
2022-08-20T23:18:06.632Z,22.08
2022-08-20T23:20:39.261Z,21.97
2022-08-20T23:23:29.256Z,21.73
2022-08-20T23:29:49.047Z,21.36
2022-08-20T23:32:40.243Z,21.29
2022-08-20T23:42:39.982Z,21.38
2022-08-20T23:45:46.939Z,21.42
2022-08-20T23:56:08.434Z,21.55
2022-08-20T23:58:41.256Z,21.57
